createdAt,value
2017-03-13T00:00:08.042Z,0
2017-03-13T00:00:51.818Z,0
2017-03-13T00:01:32.946Z,0
2017-03-13T00:02:13.947Z,0
2017-03-13T00:02:54.306Z,0
2017-03-13T00:05:14.816Z,0
2017-03-13T00:06:01.463Z,0
2017-03-13T00:06:50.174Z,0
2017-03-13T00:09:11.709Z,0
2017-03-13T00:09:59.924Z,0
2017-03-13T00:10:46.542Z,0
2017-03-13T00:11:35.215Z,0
2017-03-13T00:12:23.457Z,0
2017-03-13T00:13:03.666Z,0
2017-03-13T00:13:44.891Z,0
2017-03-13T00:14:25.787Z,0
2017-03-13T00:15:06.246Z,0
2017-03-13T00:19:11.071Z,0
2017-03-13T00:19:56.415Z,0
2017-03-13T00:20:37.534Z,0
2017-03-13T00:23:09.418Z,0
2017-03-13T00:23:57.868Z,0
2017-03-13T00:26:18.740Z,0
2017-03-13T00:27:06.987Z,0
2017-03-13T00:27:53.871Z,0
2017-03-13T00:28:42.813Z,0
2017-03-13T00:29:31.416Z,0
2017-03-13T00:30:12.774Z,0
2017-03-13T00:30:53.204Z,0
2017-03-13T00:31:33.610Z,0
2017-03-13T00:32:14.068Z,0
2017-03-13T00:32:55.331Z,0
2017-03-13T00:35:14.741Z,0
2017-03-13T00:36:03.578Z,0
2017-03-13T00:36:52.366Z,0
2017-03-13T01:51:09.442Z,0
2017-03-13T01:56:26.749Z,0
2017-03-13T01:57:14.798Z,0
2017-03-13T01:58:04.246Z,0
2017-03-13T01:58:52.079Z,0
2017-03-13T01:59:40.059Z,0
2017-03-13T02:00:20.478Z,0
2017-03-13T02:11:10.097Z,0
2017-03-13T02:11:58.657Z,0
2017-03-13T02:12:47.106Z,0
2017-03-13T02:13:35.765Z,0
2017-03-13T02:14:24.693Z,0
2017-03-13T02:15:13.132Z,0
2017-03-13T02:16:01.486Z,0
2017-03-13T02:16:49.027Z,0
2017-03-13T02:25:36.354Z,0
2017-03-13T02:26:25.148Z,0
2017-03-13T02:27:13.326Z,0
2017-03-13T02:28:02.394Z,0
2017-03-13T02:28:50.774Z,0
2017-03-13T02:29:39.320Z,0
2017-03-13T02:30:28.380Z,0
2017-03-13T02:31:16.662Z,0
2017-03-13T02:32:05.083Z,0
2017-03-13T02:32:53.647Z,0
2017-03-13T02:33:42.456Z,0
2017-03-13T02:34:31.767Z,0
2017-03-13T02:39:10.758Z,0
2017-03-13T02:39:59.425Z,0
2017-03-13T02:40:48.373Z,0
2017-03-13T02:41:36.525Z,0
2017-03-13T02:42:25.450Z,0
2017-03-13T02:43:13.966Z,0
2017-03-13T02:44:02.488Z,0
2017-03-13T02:44:51.394Z,0
2017-03-13T02:45:39.580Z,0
2017-03-13T02:46:28.180Z,0
2017-03-13T02:47:16.831Z,0
2017-03-13T02:48:05.596Z,0
2017-03-13T02:48:54.028Z,0
2017-03-13T02:49:42.601Z,0
2017-03-13T02:50:31.876Z,0
2017-03-13T02:51:19.987Z,0
2017-03-13T03:01:57.701Z,0
2017-03-13T03:02:46.677Z,0
2017-03-13T03:03:35.089Z,0
2017-03-13T03:04:23.828Z,0
2017-03-13T03:05:12.990Z,0
2017-03-13T03:07:50.887Z,0
2017-03-13T03:08:37.970Z,0
2017-03-13T03:09:26.605Z,0
2017-03-13T03:10:15.278Z,0
2017-03-13T03:11:04.161Z,0
2017-03-13T03:11:47.792Z,0
2017-03-13T03:12:28.771Z,0
2017-03-13T03:13:09.673Z,0
2017-03-13T03:13:51.822Z,0
2017-03-13T03:14:33.695Z,0
2017-03-13T03:15:18.831Z,0
2017-03-13T03:16:03.679Z,0
2017-03-13T03:16:47.761Z,0
2017-03-13T03:17:28.914Z,0
2017-03-13T03:18:12.741Z,0
2017-03-13T03:18:54.831Z,0
2017-03-13T03:19:35.272Z,0
2017-03-13T03:20:17.032Z,0
2017-03-13T03:20:57.922Z,0
2017-03-13T03:24:50.629Z,0
2017-03-13T03:25:39.330Z,0
2017-03-13T03:26:27.694Z,0
2017-03-13T03:27:16.418Z,0
2017-03-13T03:28:05.309Z,0
2017-03-13T03:28:54.835Z,0
2017-03-13T03:29:43.092Z,0
2017-03-13T03:30:31.689Z,0
2017-03-13T03:34:47.172Z,0
2017-03-13T03:35:35.167Z,0
2017-03-13T03:36:23.629Z,0
2017-03-13T03:37:12.416Z,0
2017-03-13T03:39:32.834Z,0
2017-03-13T03:41:56.041Z,0
2017-03-13T03:44:24.488Z,0
2017-03-13T03:47:04.543Z,0
2017-03-13T03:47:52.878Z,0
2017-03-13T03:48:41.454Z,0
2017-03-13T03:49:29.844Z,0
2017-03-13T03:50:18.617Z,0
2017-03-13T03:51:07.005Z,0
2017-03-13T03:51:55.590Z,0
2017-03-13T03:54:34.934Z,0
2017-03-13T03:58:50.635Z,0
2017-03-13T04:01:11.660Z,0
2017-03-13T04:03:35.656Z,0
2017-03-13T04:12:08.492Z,0
2017-03-13T04:14:31.983Z,0
2017-03-13T04:15:17.396Z,0
2017-03-13T04:16:06.267Z,0
2017-03-13T04:16:55.051Z,0
2017-03-13T04:19:16.351Z,0
2017-03-13T04:20:05.201Z,0
2017-03-13T04:20:53.634Z,0
2017-03-13T04:23:15.601Z,0
2017-03-13T04:24:04.082Z,0
2017-03-13T04:24:51.806Z,0
2017-03-13T04:25:37.895Z,0
2017-03-13T04:26:19.110Z,0
2017-03-13T04:27:06.123Z,0
2017-03-13T04:27:47.032Z,0
2017-03-13T04:28:28.009Z,0
2017-03-13T04:29:11.072Z,0
2017-03-13T04:29:54.523Z,0
2017-03-13T04:32:48.404Z,0
2017-03-13T04:33:36.816Z,0
2017-03-13T04:34:25.268Z,0
2017-03-13T04:35:13.858Z,0
2017-03-13T04:35:56.942Z,0
2017-03-13T04:38:17.566Z,0
2017-03-13T04:39:05.964Z,0
2017-03-13T04:39:47.493Z,0
2017-03-13T04:40:29.852Z,0
2017-03-13T04:41:10.238Z,0
2017-03-13T04:41:50.651Z,0
2017-03-13T04:42:31.019Z,0
2017-03-13T04:43:11.466Z,0
2017-03-13T04:43:51.828Z,0
2017-03-13T04:44:32.242Z,0
2017-03-13T04:45:12.687Z,0
2017-03-13T04:45:53.110Z,0
2017-03-13T04:46:33.588Z,0
2017-03-13T04:47:18.611Z,0
2017-03-13T04:50:09.780Z,0
2017-03-13T04:50:58.215Z,0
2017-03-13T04:51:45.180Z,0
2017-03-13T04:52:28.337Z,0
2017-03-13T04:53:09.509Z,0
2017-03-13T04:54:11.354Z,0
2017-03-13T04:54:56.308Z,0
2017-03-13T04:57:36.706Z,0
2017-03-13T04:58:24.733Z,0
2017-03-13T04:59:11.271Z,0
2017-03-13T04:59:54.498Z,0
2017-03-13T05:00:34.964Z,0
2017-03-13T05:01:15.640Z,0
2017-03-13T05:01:55.924Z,0
2017-03-13T05:02:37.728Z,0
2017-03-13T05:03:19.767Z,0
2017-03-13T05:04:00.254Z,0
2017-03-13T05:04:42.040Z,0
2017-03-13T05:05:22.998Z,0
2017-03-13T05:06:05.325Z,0
2017-03-13T05:07:01.320Z,0
2017-03-13T05:07:41.755Z,0
2017-03-13T05:13:20.572Z,4
2017-03-13T05:14:08.643Z,4
2017-03-13T05:14:50.399Z,0
2017-03-13T05:15:31.881Z,4
2017-03-13T05:16:12.303Z,4
2017-03-13T05:16:53.177Z,4
2017-03-13T05:17:41.827Z,4
2017-03-13T05:18:26.937Z,4
2017-03-13T05:19:10.902Z,8
2017-03-13T05:19:52.362Z,8
2017-03-13T05:20:37.364Z,8
2017-03-13T05:21:17.771Z,8
2017-03-13T05:22:16.934Z,12
2017-03-13T05:22:57.253Z,12
2017-03-13T05:23:38.536Z,12
2017-03-13T05:24:20.373Z,16
2017-03-13T05:25:01.588Z,20
2017-03-13T05:29:42.125Z,40
2017-03-13T05:30:29.757Z,48
2017-03-13T05:31:16.853Z,52
2017-03-13T05:31:57.669Z,56
2017-03-13T05:32:43.395Z,64
2017-03-13T05:33:25.427Z,72
2017-03-13T05:34:07.556Z,80
2017-03-13T05:34:48.975Z,88
2017-03-13T05:35:30.175Z,92
2017-03-13T05:36:11.555Z,100
2017-03-13T05:36:52.137Z,112
2017-03-13T05:37:33.225Z,116
2017-03-13T05:38:13.558Z,128
2017-03-13T05:38:54.001Z,136
2017-03-13T05:41:10.430Z,172
2017-03-13T05:41:58.469Z,188
2017-03-13T05:42:45.739Z,204
2017-03-13T05:43:34.267Z,216
2017-03-13T05:46:09.786Z,276
2017-03-13T05:46:57.292Z,296
2017-03-13T05:49:18.325Z,356
2017-03-13T05:50:06.851Z,380
2017-03-13T05:50:47.933Z,404
2017-03-13T05:51:31.161Z,432
2017-03-13T05:52:14.186Z,452
2017-03-13T05:52:58.188Z,480
2017-03-13T05:53:40.343Z,504
2017-03-13T05:54:22.480Z,532
2017-03-13T05:55:02.919Z,560
2017-03-13T05:55:44.219Z,588
2017-03-13T05:56:25.405Z,616
2017-03-13T05:57:08.543Z,644
2017-03-13T05:57:54.479Z,680
2017-03-13T05:58:34.853Z,708
2017-03-13T05:59:17.845Z,732
2017-03-13T06:00:04.231Z,760
2017-03-13T06:00:48.368Z,784
2017-03-13T06:01:29.742Z,812
2017-03-13T06:02:10.171Z,832
2017-03-13T06:02:53.948Z,864
2017-03-13T06:05:12.277Z,968
2017-03-13T06:06:00.089Z,1012
2017-03-13T06:06:43.389Z,1044
2017-03-13T06:07:24.410Z,1076
2017-03-13T06:08:05.125Z,1108
2017-03-13T06:08:45.594Z,1136
2017-03-13T06:09:26.685Z,1164
2017-03-13T06:10:07.110Z,1196
2017-03-13T06:10:48.281Z,1224
2017-03-13T06:11:31.972Z,1256
2017-03-13T06:12:20.997Z,1296
2017-03-13T06:13:01.479Z,1336
2017-03-13T06:13:41.956Z,1376
2017-03-13T06:14:23.219Z,1420
2017-03-13T06:15:05.479Z,1464
2017-03-13T06:15:46.742Z,1516
2017-03-13T06:16:31.658Z,1560
2017-03-13T06:17:12.647Z,1608
2017-03-13T06:17:56.480Z,1656
2017-03-13T06:18:38.636Z,1700
2017-03-13T06:19:19.599Z,1740
2017-03-13T06:20:01.016Z,1792
2017-03-13T06:20:42.207Z,1852
2017-03-13T06:21:22.702Z,1916
2017-03-13T06:22:03.097Z,1996
2017-03-13T06:22:48.058Z,2100
2017-03-13T06:23:29.965Z,2188
2017-03-13T06:24:10.937Z,2244
2017-03-13T06:24:51.411Z,2284
2017-03-13T06:25:32.618Z,2328
2017-03-13T06:26:14.423Z,2356
2017-03-13T06:26:57.595Z,2388
2017-03-13T06:27:41.446Z,2432
2017-03-13T06:28:22.678Z,2484
2017-03-13T06:29:03.114Z,2540
2017-03-13T06:29:43.467Z,2560
2017-03-13T06:30:23.935Z,2568
2017-03-13T06:31:04.426Z,2616
2017-03-13T06:31:45.553Z,2632
2017-03-13T06:32:25.951Z,2648
2017-03-13T06:33:08.242Z,2720
2017-03-13T06:33:52.049Z,2808
2017-03-13T06:36:11.087Z,2920
2017-03-13T06:36:57.149Z,2972
2017-03-13T06:37:37.603Z,3012
2017-03-13T06:38:18.990Z,3056
2017-03-13T06:39:01.146Z,3104
2017-03-13T06:39:42.073Z,3156
2017-03-13T06:40:23.365Z,3200
2017-03-13T06:41:08.238Z,3240
2017-03-13T06:41:52.218Z,3268
2017-03-13T06:42:34.532Z,3304
2017-03-13T06:43:15.061Z,3344
2017-03-13T06:43:55.428Z,3380
2017-03-13T06:44:35.904Z,3416
2017-03-13T06:45:17.872Z,3436
2017-03-13T06:45:58.833Z,3452
2017-03-13T06:50:03.038Z,3636
2017-03-13T06:50:47.793Z,3680
2017-03-13T06:51:29.122Z,3720
2017-03-13T06:52:09.606Z,3752
2017-03-13T06:52:50.066Z,3780
2017-03-13T06:53:30.476Z,3816
2017-03-13T06:54:16.357Z,3860
2017-03-13T06:54:56.773Z,3900
2017-03-13T07:31:06.250Z,7588
2017-03-13T07:31:47.373Z,7652
2017-03-13T07:32:27.911Z,7720
2017-03-13T07:33:09.811Z,7772
2017-03-13T07:33:50.914Z,7824
2017-03-13T07:34:32.067Z,7872
2017-03-13T07:35:13.970Z,7928
2017-03-13T07:35:56.895Z,7968
2017-03-13T07:36:37.263Z,8012
2017-03-13T07:37:18.009Z,8064
2017-03-13T07:38:02.968Z,8116
2017-03-13T07:38:43.314Z,8168
2017-03-13T07:39:25.273Z,8220
2017-03-13T07:40:06.663Z,8272
2017-03-13T07:40:47.657Z,8336
2017-03-13T07:41:29.988Z,8400
2017-03-13T07:42:10.978Z,8452
2017-03-13T07:42:52.772Z,8516
2017-03-13T07:43:33.187Z,8584
2017-03-13T07:44:13.632Z,8472
2017-03-13T08:11:27.041Z,11120
2017-03-13T08:13:40.290Z,11264
2017-03-13T08:14:21.702Z,11340
2017-03-13T08:15:03.078Z,11420
2017-03-13T08:15:43.439Z,11492
2017-03-13T08:16:25.548Z,11580
2017-03-13T08:17:08.919Z,11680
2017-03-13T08:17:49.300Z,11832
2017-03-13T08:18:30.450Z,12104
2017-03-13T08:19:13.752Z,12560
2017-03-13T08:19:55.924Z,13104
2017-03-13T08:27:17.274Z,64864
2017-03-13T08:28:00.320Z,64416
2017-03-13T08:28:40.734Z,64448
2017-03-13T08:29:21.987Z,66304
2017-03-13T08:30:03.291Z,63200
2017-03-13T08:30:43.783Z,67840
2017-03-13T08:31:24.961Z,71712
2017-03-13T08:32:06.106Z,74816
2017-03-13T08:32:47.218Z,75296
2017-03-13T08:35:10.642Z,77024
2017-03-13T08:35:53.436Z,73888
2017-03-13T08:36:41.813Z,69312
2017-03-13T08:37:28.133Z,70336
2017-03-13T08:38:12.945Z,73760
2017-03-13T08:39:00.071Z,75680
2017-03-13T08:39:46.443Z,73824
2017-03-13T08:40:28.043Z,74272
2017-03-13T08:41:11.462Z,76384
2017-03-13T08:42:00.558Z,76448
2017-03-13T08:42:43.522Z,80256
2017-03-13T08:43:30.525Z,80128
2017-03-13T08:44:14.449Z,76096
2017-03-13T08:44:58.441Z,75328
2017-03-13T08:45:41.831Z,74080
2017-03-13T08:46:27.939Z,76064
2017-03-13T08:47:13.266Z,74176
2017-03-13T08:47:59.018Z,77952
2017-03-13T08:48:43.941Z,78880
2017-03-13T08:49:35.929Z,81056
2017-03-13T08:51:56.433Z,84704
2017-03-13T08:52:41.949Z,84352
2017-03-13T08:53:28.038Z,82464
2017-03-13T08:54:12.074Z,84256
2017-03-13T08:54:55.065Z,80352
2017-03-13T08:55:36.333Z,77568
2017-03-13T08:56:21.349Z,73568
2017-03-13T08:57:02.409Z,76192
2017-03-13T08:57:43.435Z,73664
2017-03-13T08:58:27.648Z,73024
2017-03-13T08:59:09.070Z,71136
2017-03-13T08:59:51.157Z,72448
2017-03-13T09:00:33.140Z,73568
2017-03-13T09:01:15.092Z,73824
2017-03-13T09:01:57.086Z,74656
2017-03-13T09:02:38.355Z,74368
2017-03-13T09:03:18.879Z,75296
2017-03-13T09:04:01.040Z,79840
2017-03-13T09:04:43.163Z,82240
2017-03-13T09:05:26.078Z,79520
2017-03-13T09:06:06.554Z,79712
2017-03-13T09:06:47.558Z,81376
2017-03-13T09:07:28.665Z,82656
2017-03-13T09:08:11.549Z,78848
2017-03-13T09:08:52.075Z,78656
2017-03-13T09:09:34.195Z,78816
2017-03-13T09:10:15.271Z,78656
2017-03-13T09:11:00.072Z,79104
2017-03-13T09:11:40.544Z,80896
2017-03-13T09:12:29.573Z,76512
2017-03-13T09:13:10.629Z,76832
2017-03-13T09:13:53.553Z,75552
2017-03-13T09:14:35.831Z,71904
2017-03-13T09:15:16.288Z,71328
2017-03-13T09:15:57.530Z,77376
2017-03-13T09:16:37.902Z,82272
2017-03-13T09:17:18.380Z,82496
2017-03-13T09:17:59.663Z,81696
2017-03-13T09:18:40.148Z,82080
2017-03-13T09:19:22.168Z,81440
2017-03-13T09:20:05.114Z,85376
2017-03-13T09:20:46.255Z,83648
2017-03-13T09:21:27.646Z,78368
2017-03-13T09:22:11.837Z,81760
2017-03-13T09:22:54.770Z,78496
2017-03-13T09:23:36.795Z,76384
2017-03-13T09:24:18.686Z,79904
2017-03-13T09:24:59.862Z,79040
2017-03-13T09:25:43.076Z,84064
2017-03-13T09:26:24.096Z,83200
2017-03-13T09:27:06.184Z,84480
2017-03-13T09:27:46.701Z,84672
2017-03-13T09:28:28.885Z,85312
2017-03-13T09:29:09.359Z,87360
2017-03-13T09:29:49.858Z,90176
2017-03-13T09:30:30.880Z,90144
2017-03-13T09:31:11.358Z,86848
2017-03-13T09:31:53.176Z,87424
2017-03-13T09:35:47.008Z,91264
2017-03-13T09:36:27.836Z,92064
2017-03-13T09:37:08.320Z,92384
2017-03-13T09:37:50.348Z,94592
2017-03-13T09:38:30.818Z,97056
2017-03-13T09:39:11.265Z,95936
2017-03-13T09:39:52.556Z,91808
2017-03-13T09:42:09.885Z,96704
2017-03-13T09:42:50.754Z,87424
2017-03-13T09:43:32.044Z,95424
2017-03-13T09:44:12.531Z,76576
2017-03-13T09:44:53.693Z,93408
2017-03-13T09:45:34.133Z,94208
2017-03-13T09:46:15.281Z,83744
2017-03-13T09:46:55.763Z,63264
2017-03-13T09:47:37.565Z,91360
2017-03-13T09:48:18.785Z,85312
2017-03-13T09:48:59.255Z,75840
2017-03-13T09:51:16.118Z,53088
2017-03-13T09:52:03.477Z,44096
2017-03-13T09:52:45.239Z,59296
2017-03-13T09:53:26.524Z,46784
2017-03-13T09:54:07.014Z,80032
2017-03-13T09:54:47.501Z,52320
2017-03-13T09:55:28.516Z,46048
2017-03-13T09:56:09.806Z,98144
2017-03-13T09:56:50.948Z,98912
2017-03-13T09:57:35.205Z,88576
2017-03-13T09:58:15.678Z,79808
2017-03-13T09:58:56.149Z,64544
2017-03-13T09:59:37.477Z,103008
2017-03-13T10:00:17.912Z,42112
2017-03-13T10:04:06.784Z,31680
2017-03-13T10:04:53.532Z,31424
2017-03-13T10:07:09.441Z,28256
2017-03-13T10:07:56.742Z,28768
2017-03-13T10:08:36.650Z,29920
2017-03-13T10:09:17.886Z,42880
2017-03-13T10:09:58.415Z,30240
2017-03-13T10:10:41.834Z,29984
2017-03-13T10:11:20.793Z,27200
2017-03-13T10:12:02.050Z,26304
2017-03-13T10:12:43.039Z,26688
2017-03-13T10:13:24.206Z,27360
2017-03-13T10:14:06.667Z,28032
2017-03-13T10:14:47.818Z,29888
2017-03-13T10:15:28.303Z,30784
2017-03-13T10:16:08.707Z,28832
2017-03-13T10:16:49.199Z,29024
2017-03-13T10:17:30.259Z,32416
2017-03-13T10:23:24.707Z,44544
2017-03-13T10:24:12.770Z,55200
2017-03-13T10:24:59.039Z,62880
2017-03-13T10:27:17.676Z,75008
2017-03-13T10:29:47.667Z,54272
2017-03-13T10:30:34.725Z,70624
2017-03-13T10:31:17.068Z,59296
2017-03-13T10:31:57.526Z,67072
2017-03-13T10:34:15.052Z,84000
2017-03-13T10:39:48.797Z,52928
2017-03-13T10:40:37.351Z,43488
2017-03-13T10:41:17.817Z,84928
2017-03-13T10:41:58.399Z,73216
2017-03-13T10:44:14.975Z,83520
2017-03-13T10:45:09.631Z,86656
2017-03-13T10:45:50.597Z,81920
2017-03-13T10:46:33.595Z,95680
2017-03-13T10:47:15.689Z,92672
2017-03-13T10:47:56.812Z,89664
2017-03-13T10:48:37.256Z,89632
2017-03-13T10:49:18.533Z,89888
2017-03-13T10:49:59.782Z,89312
2017-03-13T10:50:41.830Z,90304
2017-03-13T10:51:24.122Z,92384
2017-03-13T10:53:54.820Z,93184
2017-03-13T10:57:45.193Z,69792
2017-03-13T10:58:32.894Z,81120
2017-03-13T10:59:14.617Z,81376
2017-03-13T10:59:55.091Z,87040
2017-03-13T11:00:38.060Z,81984
2017-03-13T11:01:23.135Z,77792
2017-03-13T11:02:03.604Z,79488
2017-03-13T11:02:46.648Z,84832
2017-03-13T11:03:28.425Z,85792
2017-03-13T11:04:09.662Z,84800
2017-03-13T11:04:55.907Z,82912
2017-03-13T11:05:38.556Z,80512
2017-03-13T11:06:19.780Z,77728
2017-03-13T11:07:03.062Z,78720
2017-03-13T11:07:43.544Z,77728
2017-03-13T11:08:24.022Z,79072
2017-03-13T11:09:04.512Z,80352
2017-03-13T11:09:46.626Z,82496
2017-03-13T11:10:29.551Z,82336
2017-03-13T11:11:14.620Z,76896
2017-03-13T11:11:59.640Z,72736
2017-03-13T11:12:41.144Z,61536
2017-03-13T11:16:51.762Z,84576
2017-03-13T11:17:39.761Z,88384
2017-03-13T11:18:22.681Z,88864
2017-03-13T11:19:03.224Z,84864
2017-03-13T11:19:43.654Z,78400
2017-03-13T11:20:24.776Z,78624
2017-03-13T11:21:05.940Z,82016
2017-03-13T11:21:51.953Z,83360
2017-03-13T11:29:27.197Z,98880
2017-03-13T11:30:10.798Z,89312
2017-03-13T11:30:52.855Z,68960
2017-03-13T11:31:35.278Z,84992
2017-03-13T11:36:27.324Z,67456
2017-03-13T11:37:09.678Z,54272
2017-03-13T11:37:50.123Z,53216
2017-03-13T11:38:32.274Z,67040
2017-03-13T11:39:14.243Z,72800
2017-03-13T11:39:55.975Z,51264
2017-03-13T11:44:18.871Z,64768
2017-03-13T11:51:39.025Z,61856
2017-03-13T11:53:46.951Z,45856
2017-03-13T11:56:05.282Z,58432
2017-03-13T11:56:53.147Z,53984
2017-03-13T11:57:37.917Z,56768
2017-03-13T11:58:18.609Z,49088
2017-03-13T11:59:12.576Z,49728
2017-03-13T11:59:55.696Z,54784
2017-03-13T12:00:38.275Z,56928
2017-03-13T12:03:21.761Z,58528
2017-03-13T12:04:10.162Z,44672
2017-03-13T12:06:48.008Z,61216
2017-03-13T12:07:36.880Z,57184
2017-03-13T12:10:15.949Z,57056
2017-03-13T12:11:03.557Z,49984
2017-03-13T12:13:06.940Z,46592
2017-03-13T12:14:11.126Z,45408
2017-03-13T12:14:52.151Z,43488
2017-03-13T12:15:35.134Z,42336
2017-03-13T12:16:15.648Z,37984
2017-03-13T12:16:58.629Z,37088
2017-03-13T12:22:44.772Z,33088
2017-03-13T12:24:49.975Z,32192
2017-03-13T12:25:38.964Z,30272
2017-03-13T12:26:23.692Z,29696
2017-03-13T12:29:07.977Z,23872
2017-03-13T12:29:51.267Z,22976
2017-03-13T12:30:31.744Z,22208
2017-03-13T12:31:12.217Z,20960
2017-03-13T12:31:52.716Z,20256
2017-03-13T12:32:34.198Z,19424
2017-03-13T12:33:17.473Z,19008
2017-03-13T12:33:58.689Z,18592
2017-03-13T12:39:26.512Z,17312
2017-03-13T12:40:14.905Z,17248
2017-03-13T12:41:03.773Z,16776
2017-03-13T12:41:52.765Z,16828
2017-03-13T12:42:41.222Z,17024
2017-03-13T12:43:27.145Z,17184
2017-03-13T12:44:15.535Z,17184
2017-03-13T12:45:04.252Z,16780
2017-03-13T12:45:52.625Z,16448
2017-03-13T12:46:42.932Z,16108
2017-03-13T12:47:23.453Z,15820
2017-03-13T12:48:07.692Z,15532
2017-03-13T12:48:51.833Z,15236
2017-03-13T12:49:35.157Z,15016
2017-03-13T12:50:16.205Z,14844
2017-03-13T12:50:56.639Z,14748
2017-03-13T12:55:31.430Z,15720
2017-03-13T12:56:19.789Z,16140
2017-03-13T12:57:07.890Z,16564
2017-03-13T12:57:55.902Z,16932
2017-03-13T12:58:41.072Z,17376
2017-03-13T12:59:28.627Z,17792
2017-03-13T13:00:11.502Z,18112
2017-03-13T13:00:53.473Z,18464
2017-03-13T13:01:36.547Z,18688
2017-03-13T13:02:17.410Z,18848
2017-03-13T13:02:57.923Z,18912
2017-03-13T13:03:39.902Z,18912
2017-03-13T13:04:21.975Z,18848
2017-03-13T13:05:05.561Z,18784
2017-03-13T13:05:46.132Z,18688
2017-03-13T13:06:26.649Z,18592
2017-03-13T13:07:08.767Z,18400
2017-03-13T13:07:51.634Z,18208
2017-03-13T13:12:08.640Z,17792
2017-03-13T13:14:35.231Z,18080
2017-03-13T13:15:24.057Z,17952
2017-03-13T13:16:08.052Z,17920
2017-03-13T13:16:51.076Z,18144
2017-03-13T13:17:32.388Z,18656
2017-03-13T13:18:19.426Z,19552
2017-03-13T13:19:00.788Z,19776
2017-03-13T13:19:41.274Z,19616
2017-03-13T13:20:22.322Z,19232
2017-03-13T13:21:02.789Z,19104
2017-03-13T13:21:43.259Z,18816
2017-03-13T13:22:24.392Z,18848
2017-03-13T13:23:05.521Z,18912
2017-03-13T13:23:49.507Z,19008
2017-03-13T13:26:25.565Z,16456
2017-03-13T13:27:16.216Z,15736
2017-03-13T13:27:59.251Z,14684
2017-03-13T13:31:51.640Z,11500
2017-03-13T13:34:09.190Z,10828
2017-03-13T13:34:54.837Z,10960
2017-03-13T13:35:35.495Z,10928
2017-03-13T13:36:16.201Z,10924
2017-03-13T13:36:57.761Z,11068
2017-03-13T13:37:38.108Z,10968
2017-03-13T13:38:19.365Z,11056
2017-03-13T13:39:02.402Z,11168
2017-03-13T13:39:42.863Z,11084
2017-03-13T13:43:01.385Z,10160
2017-03-13T13:43:42.617Z,10008
2017-03-13T13:44:27.550Z,9772
2017-03-13T13:47:09.183Z,9208
2017-03-13T13:49:13.240Z,9060
2017-03-13T13:49:57.242Z,8956
2017-03-13T13:50:37.627Z,9020
2017-03-13T13:51:20.374Z,8980
2017-03-13T13:52:00.856Z,8876
2017-03-13T13:52:43.940Z,8900
2017-03-13T13:53:24.482Z,8636
2017-03-13T13:54:05.873Z,8424
2017-03-13T13:54:49.870Z,8432
2017-03-13T13:55:31.152Z,8344
2017-03-13T13:56:11.742Z,8320
2017-03-13T13:56:53.447Z,8340
2017-03-13T13:57:36.866Z,8340
2017-03-13T13:58:17.922Z,8224
2017-03-13T13:58:59.872Z,8124
2017-03-13T13:59:41.156Z,8012
2017-03-13T14:02:00.675Z,7760
2017-03-13T14:02:45.765Z,7720
2017-03-13T14:03:26.458Z,7640
2017-03-13T14:04:06.952Z,7536
2017-03-13T14:04:50.164Z,7432
2017-03-13T14:05:39.158Z,7316
2017-03-13T14:06:20.356Z,7220
2017-03-13T14:07:01.479Z,7136
2017-03-13T14:09:18.399Z,6888
2017-03-13T14:11:53.087Z,6596
2017-03-13T14:12:35.595Z,6528
2017-03-13T14:13:16.564Z,6468
2017-03-13T14:13:57.552Z,6408
2017-03-13T14:14:38.022Z,6348
2017-03-13T14:15:19.399Z,6288
2017-03-13T14:20:05.248Z,5908
2017-03-13T14:20:51.078Z,5868
2017-03-13T14:21:39.115Z,5828
2017-03-13T14:22:21.053Z,5800
2017-03-13T14:23:01.544Z,5768
2017-03-13T14:23:41.956Z,5736
2017-03-13T14:24:26.202Z,5708
2017-03-13T14:25:09.088Z,5676
2017-03-13T14:25:50.973Z,5648
2017-03-13T14:29:17.378Z,5572
2017-03-13T14:31:55.246Z,6796
2017-03-13T14:32:44.155Z,7476
2017-03-13T14:33:27.304Z,7812
2017-03-13T14:34:07.754Z,8420
2017-03-13T14:34:48.935Z,8880
2017-03-13T14:35:31.814Z,8964
2017-03-13T14:36:13.830Z,8840
2017-03-13T14:36:57.006Z,8568
2017-03-13T14:37:39.253Z,8252
2017-03-13T14:40:12.538Z,6924
2017-03-13T14:40:59.683Z,6840
2017-03-13T14:41:41.053Z,6960
2017-03-13T14:42:21.558Z,6980
2017-03-13T14:43:04.738Z,6888
2017-03-13T14:43:47.064Z,6708
2017-03-13T14:44:32.692Z,6496
2017-03-13T14:45:13.168Z,6356
2017-03-13T14:45:53.617Z,6236
2017-03-13T14:46:35.712Z,6132
2017-03-13T14:47:16.132Z,6120
2017-03-13T14:47:58.527Z,6116
2017-03-13T14:48:39.008Z,6096
2017-03-13T14:49:22.186Z,5672
2017-03-13T14:50:06.208Z,5736
2017-03-13T14:50:47.389Z,6204
2017-03-13T14:51:30.481Z,6324
2017-03-13T14:52:11.951Z,6692
2017-03-13T14:52:52.413Z,7032
2017-03-13T14:53:34.706Z,7400
2017-03-13T14:54:17.791Z,7604
2017-03-13T14:55:00.784Z,7616
2017-03-13T14:55:44.118Z,7864
2017-03-13T14:56:25.132Z,8048
2017-03-13T14:57:12.124Z,8396
2017-03-13T14:57:55.212Z,8788
2017-03-13T14:58:37.702Z,9076
2017-03-13T14:59:23.816Z,9160
2017-03-13T15:00:06.036Z,8840
2017-03-13T15:02:49.756Z,8236
2017-03-13T15:03:38.046Z,8256
2017-03-13T15:04:18.676Z,8320
2017-03-13T15:05:00.707Z,8400
2017-03-13T15:05:41.157Z,8428
2017-03-13T15:06:22.184Z,8348
2017-03-13T15:07:05.157Z,8152
2017-03-13T15:07:48.754Z,7856
2017-03-13T15:08:32.038Z,7548
2017-03-13T15:09:14.892Z,7188
2017-03-13T15:09:57.945Z,6804
2017-03-13T15:10:39.198Z,6420
2017-03-13T15:12:58.961Z,5340
2017-03-13T15:13:47.057Z,5096
2017-03-13T15:14:35.300Z,4868
2017-03-13T15:15:16.265Z,4692
2017-03-13T15:15:57.889Z,4540
2017-03-13T15:20:22.974Z,4004
2017-03-13T15:21:07.910Z,4012
2017-03-13T15:23:30.570Z,4160
2017-03-13T15:24:18.259Z,4196
2017-03-13T15:30:18.681Z,4648
2017-03-13T15:31:06.935Z,4796
2017-03-13T15:31:55.371Z,4880
2017-03-13T15:39:52.115Z,6168
2017-03-13T15:51:35.026Z,4468
2017-03-13T16:09:13.604Z,2860
2017-03-13T16:10:02.171Z,2800
2017-03-13T16:10:41.993Z,2744
2017-03-13T16:11:30.261Z,2656
2017-03-13T16:12:11.616Z,2592
2017-03-13T16:12:52.029Z,2536
2017-03-13T16:15:14.289Z,2452
2017-03-13T16:16:02.626Z,2432
2017-03-13T16:16:51.261Z,2408
2017-03-13T16:17:37.512Z,2396
2017-03-13T16:22:11.760Z,2316
2017-03-13T16:23:05.805Z,2252
2017-03-13T16:23:54.157Z,2172
2017-03-13T16:24:43.809Z,2092
2017-03-13T16:25:27.075Z,2040
2017-03-13T16:26:22.289Z,1944
2017-03-13T16:27:02.842Z,1924
2017-03-13T16:27:50.474Z,1868
2017-03-13T16:28:36.672Z,1816
2017-03-13T16:29:20.779Z,1800
2017-03-13T16:30:06.545Z,1792
2017-03-13T16:30:50.574Z,1780
2017-03-13T16:31:31.929Z,1760
2017-03-13T16:32:19.162Z,1700
2017-03-13T16:33:08.954Z,1664
2017-03-13T16:44:59.250Z,1124
2017-03-13T16:45:48.312Z,1072
2017-03-13T16:46:39.243Z,1024
2017-03-13T16:55:34.685Z,700
2017-03-13T16:59:40.843Z,608
2017-03-13T17:00:29.720Z,592
2017-03-13T17:01:17.954Z,572
2017-03-13T17:21:31.959Z,208
2017-03-13T17:22:20.356Z,196
2017-03-13T17:23:09.282Z,184
2017-03-13T17:23:57.512Z,172
2017-03-13T17:26:17.691Z,140
2017-03-13T17:27:05.353Z,132
2017-03-13T17:27:54.022Z,124
2017-03-13T17:32:10.550Z,72
2017-03-13T17:32:59.238Z,68
2017-03-13T17:33:48.152Z,60
2017-03-13T17:34:31.163Z,56
2017-03-13T17:35:14.403Z,48
2017-03-13T17:35:57.341Z,48
2017-03-13T17:36:40.437Z,40
2017-03-13T17:37:22.342Z,36
2017-03-13T17:38:04.951Z,32
2017-03-13T17:38:46.145Z,28
2017-03-13T17:39:26.629Z,24
2017-03-13T17:40:07.027Z,20
2017-03-13T17:40:48.975Z,20
2017-03-13T17:41:29.381Z,16
2017-03-13T17:42:09.806Z,16
2017-03-13T17:42:50.234Z,16
2017-03-13T17:43:30.727Z,12
2017-03-13T17:44:11.879Z,12
2017-03-13T17:44:52.301Z,8
2017-03-13T17:45:32.973Z,8
2017-03-13T17:47:38.304Z,8
2017-03-13T17:48:26.491Z,4
2017-03-13T17:50:45.489Z,4
2017-03-13T17:51:34.493Z,4
2017-03-13T17:52:22.793Z,4
2017-03-13T17:53:11.744Z,0
2017-03-13T17:54:00.099Z,0